x

New London Ledge Ct - Ledge Light Weather Station (ldlc3) Weather Station

3:40am - Sat 23rd May 2015 All times are EDT. -4 hours from GMT.

  • Wind
    17mph, 21mph gusts
  • Air Temp 52°f
  • Sea Pressure 1021.4mb
  • New London Ledge Ct - Ledge Light Weather Station
  • New London Ledge Ct - Ledge Light Weather Station

More Historic Weather Station data

Upgrade to MSW Pro to gain access to the past 30 days of data for over 8000 Wavebouys and Weather Stations around the globe.

Join Pro

Comparision Forecast

View Surf forecast
   
Sat 05/23 3:40am 17 21 mph 1021.4mb 52f
3:25am 20 28 mph 1021mb 52f
3:10am 18 23 mph 1020.8mb 52f
2:55am 16 18 mph 1020.6mb 52f
2:40am 14 18 mph 1020.5mb 53f
2:25am 9 10 mph 1020.4mb 53f
2:10am 8 10 mph 1020.1mb 53f
1:55am 10 11 mph 1019.8mb 54f
1:40am 14 18 mph 1019.7mb 55f
1:25am 10 13 mph 1019.6mb 55f
1:10am 9 14 mph 1019.3mb 55f
Fri 05/22 7:55pm 18 24 mph 1013.6mb 67f
7:40pm 18 23 mph 1013.3mb 68f
7:25pm 16 22 mph 1013mb 68f
7:10pm 17 23 mph 1012.6mb 69f
6:55pm 18 25 mph 1012.2mb 69f
6:40pm 21 29 mph 1011.9mb 70f
6:25pm 25 30 mph 1011.2mb 70f
6:10pm 21 28 mph 1011.4mb 70f
5:55pm 23 29 mph 1011.2mb 71f
5:40pm 26 32 mph 1010.7mb 70f
5:25pm 17 21 mph 1011.3mb 63f
5:10pm 21 23 mph 1011.1mb 58f
4:55pm 18 21 mph 1010.9mb 57f
4:40pm 18 22 mph 1010.8mb 58f
4:25pm 21 25 mph 1010.6mb 59f
4:10pm 17 18 mph 1010.7mb 58f
3:55pm 20 21 mph 1010.6mb 57f
3:40pm 23 25 mph 1010.5mb 57f
3:25pm 20 22 mph 1010.5mb 56f
3:10pm 20 22 mph 1010.5mb 56f
2:55pm 22 24 mph 1010.4mb 58f
2:40pm 17 20 mph 1010.4mb 56f
2:25pm 17 20 mph 1010.4mb 57f
2:10pm 17 18 mph 1010.5mb 57f
1:55pm 20 21 mph 1010.3mb 56f
1:40pm 22 25 mph 1010.2mb 56f
1:25pm 17 20 mph 1010.3mb 55f
1:10pm 16 20 mph 1010.3mb 56f
12:55pm 20 22 mph 1010.1mb 55f
12:40pm 17 21 mph 1010.3mb 55f
12:10pm 18 23 mph 1010.4mb 55f
11:55am 16 18 mph 1010.6mb 55f
11:40am 20 23 mph 1010.5mb 54f
11:25am 18 21 mph 1010.6mb 54f
11:10am 18 22 mph 1010.6mb 54f
10:55am 21 25 mph 1010.4mb 55f
10:40am 18 22 mph 1010.4mb 56f
10:25am 10 13 mph 1010.7mb 57f
10:10am 14 18 mph 1010.4mb 63f
9:55am 14 20 mph 1010.3mb 63f
9:40am 13 17 mph 1010.3mb 62f
9:25am 7 11 mph 1010.2mb 63f
9:10am 7 8 mph 1010.2mb 61f
8:55am 8 11 mph 1010.2mb 61f
8:40am 8 9 mph 1010.2mb 60f
8:25am 7 8 mph 1010.2mb 59f
8:10am 8 9 mph 1010.2mb 56f
7:55am 10 11 mph 1010.2mb 55f
7:40am 7 8 mph 1010.3mb 53f
7:25am 5 7 mph 1010.2mb 53f
7:10am 8 9 mph 1010.2mb 51f
6:55am 6 7 mph 1010.2mb 51f
6:40am 5 7 mph 1010.1mb 50f
6:25am 5 6 mph 1010mb 50f
6:10am 5 6 mph 1010mb 50f
5:55am 5 6 mph 1009.7mb 50f
5:40am 8 9 mph 1009.6mb 50f
5:25am 8 9 mph 1009.6mb 50f
5:10am 8 9 mph 1009.6mb 50f
4:55am 6 7 mph 1009.6mb 50f
4:40am 8 9 mph 1009.9mb 50f
4:25am 9 10 mph 1010mb 50f
4:10am 6 7 mph 1009.9mb 50f
3:55am 5 6 mph 1009.8mb 49f
3:40am 5 6 mph 1010mb 49f
3:25am 5 7 mph 1010.3mb 49f
3:10am 5 6 mph 1010.3mb 49f
2:55am 5
mph
1010.3mb 49f
2:40am 6
mph
1010.3mb 49f
2:25am 3 5 mph 1010.4mb 49f
2:10am 3
mph
1010.4mb 49f
1:55am 2
mph
1010.4mb 49f
1:40am 2
mph
1010.6mb 49f
1:25am 2 3 mph 1010.6mb 49f
1:10am 3 5 mph 1010.9mb 49f
Thu 05/21 7:55pm 13 14 mph 1012.9mb 53f
7:40pm 13 15 mph 1012.4mb 53f
7:25pm 16 18 mph 1012.4mb 53f
7:10pm 17 20 mph 1012.1mb 53f
6:55pm 18 20 mph 1012.1mb 53f
6:40pm 16 18 mph 1012.3mb 53f
6:25pm 14 15 mph 1012.2mb 54f
6:10pm 14 15 mph 1012.1mb 54f
5:55pm 16 17 mph 1012.1mb 55f
5:40pm 16 17 mph 1012.1mb 54f
5:25pm 18 20 mph 1012.2mb 54f
5:10pm 18 21 mph 1012.2mb 54f
4:55pm 16 18 mph 1012.5mb 54f
4:40pm 16 17 mph 1012.6mb 55f
4:25pm 11 13 mph 1012.6mb 55f
4:10pm 9 10 mph 1013mb 55f
3:55pm 9 10 mph 1013mb 54f
3:40pm 8 9 mph 1013mb 54f
3:25pm 9 10 mph 1013.1mb 55f
3:10pm 8 9 mph 1013.3mb 53f
2:55pm 9
mph
1013.5mb 53f
2:40pm 9 10 mph 1013.5mb 54f
2:25pm 10 11 mph 1013.6mb 53f
2:10pm 9 10 mph 1013.9mb 54f
1:55pm 6 7 mph 1014.1mb 54f
1:40pm 7
mph
1014.1mb 53f
1:25pm 8 9 mph 1014mb 53f
1:10pm 8 9 mph 1014.2mb 54f
12:55pm 11 13 mph 1014.3mb 53f
12:40pm 11 13 mph 1014.2mb 52f
12:25pm 11
mph
1014.4mb 53f
12:10pm 10 11 mph 1014.5mb 52f
11:55am 10 11 mph 1014.7mb 52f
11:40am 10 11 mph 1014.7mb 51f
11:25am 11
mph
1014.7mb 52f
11:10am 10 11 mph 1014.7mb 53f
10:55am 10 11 mph 1014.5mb 53f
10:40am 10 11 mph 1014.7mb 53f
10:25am 11
mph
1014.9mb 53f
10:10am 11 13 mph 1014.8mb 53f
9:55am 10 11 mph 1014.9mb 53f
9:40am 8 9 mph 1015mb 53f
9:25am 9 10 mph 1015.2mb 52f
9:10am 9 10 mph 1015.3mb 52f
8:55am 9
mph
1015.1mb 52f
8:40am 6 7 mph 1015.2mb 51f
8:25am 6 7 mph 1015.2mb 53f
8:10am 7 8 mph 1015.1mb 51f
7:55am 10 11 mph 1015.2mb 50f
7:40am 5 6 mph 1015.3mb 50f
7:25am 3 5 mph 1014.9mb 49f
7:10am 6 8 mph 1014.8mb 48f
6:55am 6
mph
1014.7mb 47f
6:40am 3 6 mph 1014.5mb 47f
6:25am 3 5 mph 1014.6mb 47f
6:10am 3 5 mph 1014.5mb 47f
5:55am 6 7 mph 1014.5mb 47f
5:40am 5 6 mph 1014.3mb 47f
5:25am 5 6 mph 1014.4mb 47f
5:10am 5 6 mph 1014.1mb 47f
4:55am 3 5 mph 1014.1mb 47f
4:40am 3
mph
1014.2mb 47f
4:25am 3 5 mph 1014.3mb 48f
4:10am 5 6 mph 1014.3mb 48f
3:55am 6 7 mph 1014.4mb 48f
3:40am 6 7 mph 1014.2mb 48f
3:25am 8 10 mph 1014.2mb 48f
3:10am 8 10 mph 1014.1mb 48f
2:55am 7 8 mph 1014.3mb 49f
2:40am 7 8 mph 1014.2mb 49f
2:25am 7 9 mph 1014.2mb 49f
2:10am 8 9 mph 1014.1mb 49f
1:55am 10 13 mph 1014mb 49f
1:40am 10 11 mph 1013.8mb 49f
1:25am 10 11 mph 1014mb 49f
1:10am 8 10 mph 1013.9mb 49f
Wed 05/20 7:55pm 8 11 mph 1011.8mb 55f
7:40pm 13 15 mph 1011.8mb 55f
7:25pm 15 18 mph 1011.6mb 56f
7:10pm 24 31 mph 1011mb 56f
6:55pm 20 26 mph 1010.9mb 56f
6:40pm 18 22 mph 1010.7mb 56f
6:25pm 25 34 mph 1010.4mb 57f
6:10pm 26 34 mph 1010.4mb 57f
5:55pm 23 31 mph 1010.4mb 58f
5:40pm 26 31 mph 1010.2mb 58f
5:25pm 21 29 mph 1010.3mb 58f
5:10pm 23 31 mph 1010.2mb 58f
4:55pm 24 37 mph 1009.9mb 58f
4:40pm 28 34 mph 1009.6mb 58f
4:25pm 26 34 mph 1009.5mb 58f
4:10pm 24 34 mph 1009.3mb 58f
3:55pm 21 28 mph 1009.2mb 59f
3:40pm 25 33 mph 1009.1mb 59f
3:25pm 26 33 mph 1008.6mb 58f
3:10pm 26 33 mph 1008.7mb 59f
2:55pm 23 36 mph 1008.6mb 60f
2:40pm 18 23 mph 1008.6mb 60f
2:25pm 25 36 mph 1008.3mb 60f
2:10pm 23 32 mph 1008.2mb 60f
1:55pm 24 31 mph 1008.3mb 60f
1:40pm 20 26 mph 1008.7mb 60f
1:25pm 26 32 mph 1008.5mb 59f
1:10pm 22 34 mph 1008.6mb 59f
12:55pm 24 31 mph 1008.4mb 58f
12:40pm 22 31 mph 1008.7mb 58f
12:25pm 25 33 mph 1008.6mb 58f
12:10pm 23 28 mph 1008.9mb 58f
11:55am 24 32 mph 1008.9mb 58f
11:40am 25 31 mph 1008.8mb 58f
11:25am 22 31 mph 1008.7mb 57f
11:10am 23 29 mph 1008.7mb 57f
10:55am 26 34 mph 1008.6mb 58f
10:40am 26 34 mph 1008.5mb 57f
10:25am 22 28 mph 1008.9mb 57f
10:10am 20 30 mph 1009.5mb 57f
9:55am 21 28 mph 1009.4mb 57f
9:40am 23 31 mph 1009.4mb 56f
9:25am 23 30 mph 1009.3mb 57f
9:10am 23 30 mph 1009.1mb 56f
8:55am 17 21 mph 1009.1mb 57f
8:40am 16 20 mph 1008.9mb 56f
8:25am 16 21 mph 1008.5mb 56f
8:10am 13 14 mph 1008.5mb 53f
7:55am 16 18 mph 1008.8mb 53f
7:40am 14
mph
1009mb 53f
7:25am 9 10 mph 1009mb 53f
7:10am 11 13 mph 1008.8mb 53f
6:55am 10 11 mph 1008.6mb 54f
6:40am 9 10 mph 1008.5mb 54f
6:25am 9 11 mph 1008.2mb 54f
6:10am 9 11 mph 1008.1mb 54f
5:55am 10 15 mph 1008.1mb 54f
5:40am 10 14 mph 1008.1mb 54f
5:25am 13 17 mph 1007.9mb 55f
5:10am 13 20 mph 1008mb 55f
4:55am 16 22 mph 1007.6mb 55f
4:40am 7 9 mph 1007.9mb 55f
4:25am 8 11 mph 1007.6mb 56f
4:10am 11 14 mph 1007.5mb 56f
3:55am 14 16 mph 1007.4mb 57f
3:40am 10 17 mph 1007.4mb 57f
3:25am 18 23 mph 1006.9mb 58f
3:10am 20 24 mph 1006.8mb 58f
2:55am 17 23 mph 1006.9mb 58f
2:40am 21 25 mph 1006.9mb 59f
2:25am 22 28 mph 1006.9mb 59f
2:10am 23 30 mph 1006.9mb 59f
1:55am 25 31 mph 1006.5mb 59f
1:40am 24 25 mph 1006.9mb 59f
1:25am 24 30 mph 1007.7mb 61f
1:10am 13 15 mph 1008.5mb 62f
Tue 05/19 7:55pm 5 6 mph 1008.8mb 56f
7:40pm 8 9 mph 1008.5mb 56f
7:25pm 6 7 mph 1008.6mb 57f
7:10pm 5 6 mph 1009mb 57f
6:55pm 5
mph
1009.2mb 56f
6:40pm 3 5 mph 1009.2mb 56f
6:25pm 2 3 mph 1009.4mb 56f
6:10pm 3 5 mph 1009.4mb 56f
5:55pm 6 7 mph 1009.5mb 56f
5:40pm 6 7 mph 1009.7mb 56f
5:25pm 6
mph
1010.1mb 56f
5:10pm 3 5 mph 1010.4mb 56f
4:55pm 3
mph
1010.6mb 56f
4:40pm 5
mph
1010.7mb 56f
4:25pm 6
mph
1010.7mb 56f
4:10pm 7
mph
1010.6mb 55f
3:55pm 7 8 mph 1010.7mb 54f
3:40pm 8
mph
1010.9mb 54f
3:25pm 7
mph
1011.3mb 55f
3:10pm 5
mph
1011.7mb 55f
2:55pm 6
mph
1011.7mb 56f
2:40pm 6
mph
1011.9mb 56f
2:25pm 5 6 mph 1012mb 55f
2:10pm 6 7 mph 1011.9mb 53f
1:55pm 10
mph
1011.9mb 54f
1:40pm 9 10 mph 1012mb 53f
1:25pm 10 11 mph 1012mb 53f
1:10pm 11
mph
1012.4mb 53f
12:55pm 11
mph
1012.5mb 53f
12:40pm 10
mph
1012.7mb 53f
12:25pm 10
mph
1012.9mb 53f
12:10pm 10
mph
1013.1mb 53f
11:55am 10
mph
1013.1mb 53f
11:40am 9
mph
1013.3mb 54f
11:25am 8
mph
1013.5mb 54f
11:10am 8
mph
1013.5mb 54f
10:55am 6 7 mph 1013.8mb 53f
10:40am 5 6 mph 1013.9mb 53f
10:25am 6 7 mph 1014mb 53f
10:10am 9
mph
1013.9mb 53f
9:55am 10 11 mph 1013.8mb 53f
9:40am 8 9 mph 1014.1mb 53f
9:25am 9
mph
1014.3mb 52f
9:10am 8 9 mph 1014.5mb 52f
8:55am 9
mph
1014.6mb 52f
8:40am 8 9 mph 1014.7mb 52f
8:25am 8 9 mph 1014.8mb 52f